createdAt,value
2022-08-19T00:01:53.143Z,21.58
2022-08-19T00:04:25.430Z,21.58
2022-08-19T00:06:55.277Z,21.61
2022-08-19T00:09:25.860Z,21.58
2022-08-19T00:11:57.464Z,21.55
2022-08-19T00:14:31.295Z,21.46
2022-08-19T00:17:00.769Z,21.54
2022-08-19T00:19:30.653Z,21.54
2022-08-19T00:21:59.916Z,21.73
2022-08-19T00:24:29.833Z,21.57
2022-08-19T00:27:04.915Z,21.52
2022-08-19T00:29:52.777Z,21.38
2022-08-19T00:32:23.081Z,21.40
2022-08-19T00:34:54.598Z,21.53
2022-08-19T00:37:24.802Z,21.49
2022-08-19T00:39:54.275Z,21.39
2022-08-19T00:42:24.324Z,21.48
2022-08-19T00:44:54.891Z,21.49
2022-08-19T00:47:24.335Z,21.23
2022-08-19T00:49:58.964Z,21.37
2022-08-19T00:52:31.096Z,21.31
2022-08-19T00:55:01.023Z,21.31
2022-08-19T00:57:35.156Z,21.47
2022-08-19T01:00:11.363Z,21.31
2022-08-19T01:02:41.587Z,21.50
2022-08-19T01:05:13.750Z,21.33
2022-08-19T01:07:44.236Z,21.33
2022-08-19T01:10:17.653Z,21.37
2022-08-19T01:12:48.220Z,21.33
2022-08-19T01:15:24.011Z,21.27
2022-08-19T01:17:54.279Z,21.25
2022-08-19T01:20:25.577Z,21.32
2022-08-19T01:22:58.634Z,21.38
2022-08-19T01:28:06.419Z,21.52
2022-08-19T01:30:44.500Z,21.45
2022-08-19T01:33:21.884Z,21.39
2022-08-19T01:35:52.486Z,21.37
2022-08-19T01:38:29.295Z,21.27
2022-08-19T01:40:59.629Z,21.39
2022-08-19T01:43:31.004Z,21.21
2022-08-19T01:46:00.173Z,21.21
2022-08-19T01:48:30.521Z,21.20
2022-08-19T01:51:00.277Z,21.13
2022-08-19T01:53:33.783Z,21.10
2022-08-19T01:56:04.148Z,21.05
2022-08-19T01:58:37.122Z,21.17
2022-08-19T02:01:07.603Z,21.28
2022-08-19T02:03:37.130Z,21.17
2022-08-19T02:06:07.282Z,21.34
2022-08-19T02:08:40.821Z,21.20
2022-08-19T02:11:10.598Z,21.06
2022-08-19T02:13:39.934Z,21.18
2022-08-19T02:16:09.608Z,21.35
2022-08-19T02:18:39.899Z,21.15
2022-08-19T02:21:09.729Z,21.15
2022-08-19T02:23:41.009Z,21.20
2022-08-19T02:26:10.737Z,21.08
2022-08-19T02:28:40.485Z,21.05
2022-08-19T02:31:13.217Z,21.23
2022-08-19T02:33:42.768Z,21.23
2022-08-19T02:36:15.534Z,21.20
2022-08-19T02:38:47.699Z,21.25
2022-08-19T02:41:26.864Z,21.16
2022-08-19T02:44:18.444Z,21.24
2022-08-19T02:46:52.403Z,21.24
2022-08-19T02:49:22.736Z,21.17
2022-08-19T02:51:52.346Z,21.26
2022-08-19T02:54:23.414Z,21.23
2022-08-19T02:56:52.879Z,21.28
2022-08-19T02:59:22.982Z,21.19
2022-08-19T03:01:52.462Z,21.24
2022-08-19T03:04:22.599Z,21.18
2022-08-19T03:06:52.116Z,21.12
2022-08-19T03:09:23.954Z,21.25
2022-08-19T03:11:53.547Z,21.29
2022-08-19T03:14:23.436Z,21.29
2022-08-19T03:16:54.559Z,21.23
2022-08-19T03:19:24.379Z,21.17
2022-08-19T03:21:54.588Z,20.87
2022-08-19T03:24:25.740Z,20.88
2022-08-19T03:26:58.875Z,20.89
2022-08-19T03:29:30.661Z,20.95
2022-08-19T03:32:02.255Z,20.98
2022-08-19T03:34:36.274Z,20.78
2022-08-19T03:37:08.753Z,20.64
2022-08-19T03:39:46.567Z,20.94
2022-08-19T03:42:47.952Z,21.14
2022-08-19T03:45:09.156Z,21.00
2022-08-19T03:47:39.066Z,20.85
2022-08-19T03:50:10.060Z,20.93
2022-08-19T03:56:27.141Z,20.41
2022-08-19T03:58:57.880Z,20.38
2022-08-19T04:05:14.189Z,20.63
2022-08-19T04:07:43.431Z,20.62
2022-08-19T04:10:13.015Z,20.76
2022-08-19T04:12:47.561Z,20.83
2022-08-19T04:15:18.793Z,20.82
2022-08-19T04:17:48.279Z,20.77
2022-08-19T04:20:17.818Z,20.59
2022-08-19T04:22:47.195Z,20.58
2022-08-19T04:25:16.781Z,20.60
2022-08-19T04:27:47.919Z,20.72
2022-08-19T04:30:18.815Z,20.79
2022-08-19T04:32:48.051Z,20.89
2022-08-19T04:35:20.136Z,21.02
2022-08-19T04:37:51.420Z,21.02
2022-08-19T04:40:38.124Z,21.15
2022-08-19T04:43:09.651Z,21.14
2022-08-19T04:45:43.927Z,21.30
2022-08-19T04:48:26.566Z,21.42
2022-08-19T04:50:59.085Z,21.40
2022-08-19T04:53:38.063Z,21.31
2022-08-19T04:56:10.269Z,21.44
2022-08-19T04:58:43.491Z,21.49
2022-08-19T05:01:15.310Z,21.47
2022-08-19T05:03:46.887Z,21.52
2022-08-19T05:06:18.039Z,21.56
2022-08-19T05:08:48.030Z,21.69
2022-08-19T05:11:26.242Z,21.73
2022-08-19T05:13:59.979Z,21.62
2022-08-19T05:16:30.267Z,21.67
2022-08-19T05:19:16.684Z,21.81
2022-08-19T05:22:03.697Z,21.81
2022-08-19T05:24:35.340Z,21.75
2022-08-19T05:27:05.496Z,21.80
2022-08-19T05:29:37.038Z,21.76
2022-08-19T05:32:11.565Z,21.77
2022-08-19T05:34:40.946Z,21.84
2022-08-19T05:37:11.375Z,21.93
2022-08-19T05:39:41.590Z,22.00
2022-08-19T05:42:12.794Z,22.01
2022-08-19T05:44:46.102Z,22.05
2022-08-19T05:47:17.320Z,22.10
2022-08-19T05:49:46.955Z,22.12
2022-08-19T05:52:18.842Z,21.95
2022-08-19T05:54:52.091Z,21.81
2022-08-19T05:57:21.997Z,21.75
2022-08-19T05:59:58.070Z,21.85
2022-08-19T06:02:28.518Z,22.03
2022-08-19T06:04:57.928Z,22.07
2022-08-19T06:07:27.632Z,22.10
2022-08-19T06:10:01.029Z,22.19
2022-08-19T06:12:35.725Z,22.26
2022-08-19T06:15:10.833Z,22.28
2022-08-19T06:17:40.247Z,22.27
2022-08-19T06:20:13.080Z,22.26
2022-08-19T06:22:43.658Z,22.28
2022-08-19T06:25:14.888Z,22.51
2022-08-19T06:28:11.490Z,22.48
2022-08-19T06:30:35.323Z,22.57
2022-08-19T06:33:05.058Z,22.69
2022-08-19T06:35:35.466Z,22.78
2022-08-19T06:38:20.428Z,23.28
2022-08-19T06:41:02.940Z,22.83
2022-08-19T06:44:13.239Z,23.01
2022-08-19T06:47:23.668Z,22.72
2022-08-19T06:50:02.991Z,22.75
2022-08-19T06:52:34.336Z,22.89
2022-08-19T06:55:09.344Z,22.95
2022-08-19T06:57:38.757Z,22.96
2022-08-19T07:00:13.200Z,22.84
2022-08-19T07:02:49.767Z,22.86
2022-08-19T07:05:25.672Z,22.91
2022-08-19T07:07:58.177Z,23.19
2022-08-19T07:10:34.273Z,23.41
2022-08-19T07:13:04.308Z,23.24
2022-08-19T07:15:33.588Z,23.02
2022-08-19T07:18:04.489Z,22.96
2022-08-19T07:20:33.983Z,22.92
2022-08-19T07:23:07.189Z,22.93
2022-08-19T07:25:38.187Z,22.95
2022-08-19T07:28:22.478Z,23.08
2022-08-19T07:30:56.183Z,23.06
2022-08-19T07:33:28.047Z,22.97
2022-08-19T07:35:57.617Z,22.89
2022-08-19T07:38:27.414Z,22.95
2022-08-19T07:40:56.910Z,22.95
2022-08-19T07:43:33.414Z,22.96
2022-08-19T07:46:04.960Z,22.86
2022-08-19T07:48:36.422Z,22.82
2022-08-19T07:51:09.277Z,22.82
2022-08-19T07:53:39.986Z,22.80
2022-08-19T07:56:10.203Z,22.83
2022-08-19T07:58:41.184Z,22.86
2022-08-19T08:01:13.086Z,22.85
2022-08-19T08:04:01.964Z,22.76
2022-08-19T08:06:51.178Z,22.73
2022-08-19T08:09:23.298Z,22.77
2022-08-19T08:11:55.807Z,22.68
2022-08-19T08:14:29.688Z,22.51
2022-08-19T08:17:10.988Z,22.45
2022-08-19T08:19:42.399Z,22.53
2022-08-19T08:22:35.301Z,22.51
2022-08-19T08:25:07.744Z,22.52
2022-08-19T08:27:40.637Z,22.41
2022-08-19T08:30:10.787Z,22.53
2022-08-19T08:32:41.183Z,22.45
2022-08-19T08:35:14.878Z,22.42
2022-08-19T08:37:44.613Z,22.40
2022-08-19T08:40:23.217Z,22.58
2022-08-19T08:42:57.419Z,22.45
2022-08-19T08:45:27.852Z,22.38
2022-08-19T08:48:06.614Z,22.34
2022-08-19T08:50:54.441Z,22.26
2022-08-19T08:53:29.627Z,22.28
2022-08-19T08:56:03.119Z,22.37
2022-08-19T08:58:45.357Z,22.46
2022-08-19T09:01:16.477Z,22.51
2022-08-19T09:03:47.293Z,22.52
2022-08-19T09:06:25.948Z,22.59
2022-08-19T09:09:04.772Z,22.48
2022-08-19T09:11:58.618Z,22.34
2022-08-19T09:14:50.359Z,22.32
2022-08-19T09:17:29.217Z,22.42
2022-08-19T09:20:02.234Z,22.58
2022-08-19T09:22:32.964Z,22.57
2022-08-19T09:25:03.256Z,22.58
2022-08-19T09:27:41.792Z,22.72
2022-08-19T09:30:17.149Z,22.80
2022-08-19T09:32:46.954Z,22.88
2022-08-19T09:35:24.296Z,22.83
2022-08-19T09:37:57.819Z,23.06
2022-08-19T09:40:32.624Z,22.90
2022-08-19T09:43:09.954Z,23.07
2022-08-19T09:45:42.631Z,23.25
2022-08-19T09:48:12.068Z,23.21
2022-08-19T09:50:51.865Z,23.15
2022-08-19T09:53:25.141Z,23.33
2022-08-19T09:55:57.046Z,23.36
2022-08-19T09:58:28.751Z,23.38
2022-08-19T10:00:59.471Z,23.40
2022-08-19T10:03:29.988Z,23.29
2022-08-19T10:06:01.471Z,23.28
2022-08-19T10:08:34.183Z,23.25
2022-08-19T10:11:27.817Z,23.18
2022-08-19T10:13:53.162Z,23.25
2022-08-19T10:16:30.002Z,23.19
2022-08-19T10:19:00.435Z,23.18
2022-08-19T10:21:35.309Z,23.23
2022-08-19T10:24:09.363Z,23.16
2022-08-19T10:26:45.611Z,23.18
2022-08-19T10:29:31.966Z,23.25
2022-08-19T10:32:03.955Z,23.28
2022-08-19T10:34:34.307Z,23.35
2022-08-19T10:37:04.028Z,23.41
2022-08-19T10:39:44.220Z,23.34
2022-08-19T10:42:14.515Z,23.49
2022-08-19T10:44:44.867Z,23.44
2022-08-19T10:47:17.596Z,23.55
2022-08-19T10:50:12.385Z,23.62
2022-08-19T10:52:50.160Z,23.64
2022-08-19T10:55:42.437Z,23.77
2022-08-19T10:58:17.572Z,23.69
2022-08-19T11:00:55.552Z,23.64
2022-08-19T11:03:25.396Z,23.61
2022-08-19T11:06:01.675Z,23.78
2022-08-19T11:08:31.820Z,23.94
2022-08-19T11:11:04.367Z,24.08
2022-08-19T11:13:36.823Z,24.24
2022-08-19T11:16:09.369Z,24.66
2022-08-19T11:18:40.667Z,24.54
2022-08-19T11:21:14.909Z,24.40
2022-08-19T11:23:46.716Z,24.43
2022-08-19T11:26:18.479Z,24.52
2022-08-19T11:28:48.704Z,24.70
2022-08-19T11:31:21.456Z,24.71
2022-08-19T11:33:54.762Z,24.69
2022-08-19T11:36:24.987Z,24.79
2022-08-19T11:38:54.567Z,24.63
2022-08-19T11:41:26.210Z,24.54
2022-08-19T11:43:56.807Z,24.59
2022-08-19T11:46:28.569Z,24.70
2022-08-19T11:49:04.195Z,24.76
2022-08-19T11:51:34.763Z,24.89
2022-08-19T11:54:06.803Z,24.88
2022-08-19T11:56:38.584Z,24.97
2022-08-19T11:59:14.803Z,25.11
2022-08-19T12:01:44.587Z,25.12
2022-08-19T12:04:14.726Z,25.23
2022-08-19T12:06:44.311Z,25.50
2022-08-19T12:09:15.359Z,25.77
2022-08-19T12:11:46.871Z,26.04
2022-08-19T12:14:17.536Z,25.89
2022-08-19T12:16:51.609Z,25.85
2022-08-19T12:19:22.851Z,25.83
2022-08-19T12:21:56.471Z,25.85
2022-08-19T12:24:26.104Z,26.01
2022-08-19T12:27:00.854Z,26.22
2022-08-19T12:29:33.367Z,26.81
2022-08-19T12:32:04.040Z,26.71
2022-08-19T12:34:35.703Z,27.21
2022-08-19T12:37:06.749Z,27.22
2022-08-19T12:39:42.185Z,27.08
2022-08-19T12:42:14.782Z,27.36
2022-08-19T12:44:45.412Z,27.60
2022-08-19T12:47:16.445Z,27.79
2022-08-19T12:49:54.234Z,28.39
2022-08-19T12:52:26.233Z,28.78
2022-08-19T12:54:57.625Z,28.99
2022-08-19T12:57:34.253Z,29.04
2022-08-19T13:00:09.705Z,28.98
2022-08-19T13:02:40.183Z,29.19
2022-08-19T13:05:12.344Z,29.78
2022-08-19T13:07:45.028Z,29.93
2022-08-19T13:10:17.526Z,29.75
2022-08-19T13:12:49.563Z,29.27
2022-08-19T13:15:23.669Z,29.17
2022-08-19T13:17:56.916Z,29.27
2022-08-19T13:20:27.232Z,29.27
2022-08-19T13:22:58.308Z,29.10
2022-08-19T13:25:27.720Z,28.98
2022-08-19T13:27:58.835Z,28.72
2022-08-19T13:30:45.568Z,28.78
2022-08-19T13:33:17.432Z,28.67
2022-08-19T13:35:50.907Z,28.88
2022-08-19T13:38:22.336Z,28.80
2022-08-19T13:40:53.737Z,28.70
2022-08-19T13:43:27.069Z,29.01
2022-08-19T13:45:57.927Z,29.58
2022-08-19T13:48:28.730Z,30.08
2022-08-19T13:50:58.339Z,30.02
2022-08-19T13:53:31.316Z,30.06
2022-08-19T13:56:00.525Z,30.12
2022-08-19T13:58:32.666Z,30.05
2022-08-19T14:01:02.129Z,30.58
2022-08-19T14:03:31.461Z,30.34
2022-08-19T14:06:01.152Z,30.89
2022-08-19T14:08:33.221Z,31.07
2022-08-19T14:11:06.617Z,31.13
2022-08-19T14:13:37.429Z,30.95
2022-08-19T14:16:10.986Z,31.08
2022-08-19T14:18:42.914Z,31.42
2022-08-19T14:21:18.387Z,31.70
2022-08-19T14:23:47.638Z,31.36
2022-08-19T14:26:21.552Z,31.59
2022-08-19T14:28:55.293Z,31.19
2022-08-19T14:31:26.803Z,31.31
2022-08-19T14:33:59.410Z,31.15
2022-08-19T14:36:28.267Z,31.38
2022-08-19T14:38:58.500Z,31.19
2022-08-19T14:41:28.259Z,31.46
2022-08-19T14:44:00.516Z,31.37
2022-08-19T14:46:31.377Z,30.61
2022-08-19T14:49:00.704Z,30.64
2022-08-19T14:51:29.899Z,30.57
2022-08-19T14:53:59.258Z,30.34
2022-08-19T14:56:31.716Z,30.65
2022-08-19T14:59:02.120Z,30.27
2022-08-19T15:01:31.853Z,30.57
2022-08-19T15:04:02.563Z,30.34
2022-08-19T15:06:32.940Z,30.16
2022-08-19T15:09:04.562Z,30.92
2022-08-19T15:11:34.210Z,30.22
2022-08-19T15:14:07.883Z,30.53
2022-08-19T15:16:40.477Z,30.35
2022-08-19T15:19:09.846Z,29.82
2022-08-19T15:21:38.864Z,30.12
2022-08-19T15:24:08.547Z,30.28
2022-08-19T15:26:38.104Z,29.63
2022-08-19T15:29:08.821Z,29.52
2022-08-19T15:31:41.634Z,29.57
2022-08-19T15:34:12.103Z,29.29
2022-08-19T15:36:41.317Z,29.12
2022-08-19T15:39:11.793Z,28.72
2022-08-19T15:41:41.199Z,28.70
2022-08-19T15:44:18.707Z,28.63
2022-08-19T15:46:50.368Z,28.47
2022-08-19T15:49:22.998Z,28.24
2022-08-19T15:51:57.982Z,28.46
2022-08-19T15:54:27.208Z,28.42
2022-08-19T15:57:15.352Z,28.15
2022-08-19T16:00:04.504Z,27.96
2022-08-19T16:02:53.461Z,28.10
2022-08-19T16:05:44.805Z,27.93
2022-08-19T16:08:15.664Z,27.85
2022-08-19T16:10:45.090Z,27.79
2022-08-19T16:13:14.281Z,27.85
2022-08-19T16:15:45.146Z,27.82
2022-08-19T16:18:14.262Z,27.92
2022-08-19T16:20:44.367Z,27.67
2022-08-19T16:23:13.526Z,27.66
2022-08-19T16:25:42.701Z,27.51
2022-08-19T16:28:13.545Z,27.51
2022-08-19T16:30:48.501Z,27.43
2022-08-19T16:33:22.780Z,27.35
2022-08-19T16:36:00.357Z,27.33
2022-08-19T16:38:37.654Z,27.43
2022-08-19T16:41:18.583Z,27.41
2022-08-19T16:43:49.309Z,27.12
2022-08-19T16:46:20.338Z,27.04
2022-08-19T16:48:52.263Z,27.02
2022-08-19T16:51:22.866Z,27.18
2022-08-19T16:53:53.660Z,26.85
2022-08-19T16:56:25.654Z,26.84
2022-08-19T16:58:54.792Z,26.73
2022-08-19T17:01:26.395Z,26.64
2022-08-19T17:03:56.362Z,26.51
2022-08-19T17:06:28.367Z,26.65
2022-08-19T17:09:00.517Z,26.54
2022-08-19T17:11:35.878Z,26.35
2022-08-19T17:14:07.199Z,26.11
2022-08-19T17:16:39.917Z,26.01
2022-08-19T17:19:10.148Z,25.93
2022-08-19T17:21:40.701Z,25.88
2022-08-19T17:24:10.203Z,25.70
2022-08-19T17:26:39.921Z,25.78
2022-08-19T17:29:09.450Z,25.74
2022-08-19T17:31:40.203Z,25.61
2022-08-19T17:34:09.370Z,25.40
2022-08-19T17:36:38.407Z,25.34
2022-08-19T17:39:07.882Z,25.30
2022-08-19T17:41:37.072Z,25.12
2022-08-19T17:44:06.683Z,25.22
2022-08-19T17:46:35.890Z,25.10
2022-08-19T17:49:09.256Z,24.98
2022-08-19T17:51:52.361Z,24.91
2022-08-19T17:54:21.771Z,24.87
2022-08-19T17:56:51.340Z,24.78
2022-08-19T17:59:20.723Z,24.68
2022-08-19T18:01:57.687Z,24.66
2022-08-19T18:04:31.418Z,24.54
2022-08-19T18:07:04.522Z,24.62
2022-08-19T18:09:49.411Z,24.46
2022-08-19T18:12:23.475Z,24.56
2022-08-19T18:14:55.162Z,24.52
2022-08-19T18:17:29.097Z,24.46
2022-08-19T18:20:00.144Z,24.42
2022-08-19T18:22:33.699Z,24.50
2022-08-19T18:25:05.166Z,24.44
2022-08-19T18:27:47.899Z,24.38
2022-08-19T18:33:28.777Z,24.39
2022-08-19T18:36:10.966Z,24.37
2022-08-19T18:38:57.370Z,24.28
2022-08-19T18:41:44.470Z,23.95
2022-08-19T18:44:30.701Z,24.03
2022-08-19T18:47:17.063Z,24.05
2022-08-19T18:49:46.104Z,24.09
2022-08-19T18:52:17.046Z,24.05
2022-08-19T18:54:48.404Z,24.10
2022-08-19T18:57:19.530Z,24.11
2022-08-19T18:59:48.575Z,24.08
2022-08-19T19:05:08.371Z,23.93
2022-08-19T19:07:39.668Z,23.93
2022-08-19T19:10:12.199Z,23.86
2022-08-19T19:12:45.762Z,23.89
2022-08-19T19:15:14.884Z,23.94
2022-08-19T19:17:45.170Z,23.96
2022-08-19T19:20:14.932Z,23.81
2022-08-19T19:22:45.529Z,23.85
2022-08-19T19:25:14.724Z,23.78
2022-08-19T19:30:33.076Z,23.77
2022-08-19T19:33:02.441Z,23.68
2022-08-19T19:35:32.477Z,23.61
2022-08-19T19:38:03.199Z,23.55
2022-08-19T19:40:32.472Z,23.52
2022-08-19T19:43:04.756Z,23.51
2022-08-19T19:45:34.754Z,23.37
2022-08-19T19:48:03.739Z,23.29
2022-08-19T19:50:32.823Z,23.29
2022-08-19T19:53:03.656Z,23.21
2022-08-19T19:55:32.756Z,23.23
2022-08-19T19:58:01.454Z,23.21
2022-08-19T20:00:30.882Z,23.27
2022-08-19T20:03:01.255Z,23.35
2022-08-19T20:05:30.410Z,23.40
2022-08-19T20:08:16.667Z,23.29
2022-08-19T20:10:49.609Z,23.22
2022-08-19T20:13:18.748Z,23.22
2022-08-19T20:15:47.572Z,23.18
2022-08-19T20:18:16.895Z,23.10
2022-08-19T20:20:46.506Z,23.11
2022-08-19T20:23:15.423Z,23.09
2022-08-19T20:25:44.737Z,23.13
2022-08-19T20:28:15.290Z,23.12
2022-08-19T20:30:46.402Z,23.08
2022-08-19T20:33:16.159Z,23.06
2022-08-19T20:35:46.267Z,23.01
2022-08-19T20:38:15.860Z,23.04
2022-08-19T20:40:44.790Z,23.06
2022-08-19T20:43:15.713Z,23.05
2022-08-19T20:45:44.886Z,23.02
2022-08-19T20:48:13.872Z,22.95
2022-08-19T20:50:42.884Z,22.89
2022-08-19T20:53:13.652Z,22.94
2022-08-19T20:55:46.611Z,22.88
2022-08-19T20:58:19.433Z,22.87
2022-08-19T21:00:50.726Z,22.93
2022-08-19T21:03:22.750Z,22.89
2022-08-19T21:05:51.970Z,22.91
2022-08-19T21:08:21.695Z,23.00
2022-08-19T21:10:53.386Z,22.90
2022-08-19T21:13:24.833Z,22.84
2022-08-19T21:15:54.391Z,22.82
2022-08-19T21:18:27.522Z,22.86
2022-08-19T21:20:57.758Z,22.83
2022-08-19T21:23:31.306Z,22.73
2022-08-19T21:26:02.164Z,22.67
2022-08-19T21:28:50.720Z,22.61
2022-08-19T21:31:19.708Z,22.63
2022-08-19T21:33:48.721Z,22.66
2022-08-19T21:36:17.833Z,22.54
2022-08-19T21:38:46.890Z,22.64
2022-08-19T21:41:15.929Z,22.63
2022-08-19T21:43:44.938Z,22.53
2022-08-19T21:46:16.374Z,22.53
2022-08-19T21:48:46.078Z,22.45
2022-08-19T21:51:15.146Z,22.48
2022-08-19T21:53:45.943Z,22.39
2022-08-19T21:56:14.930Z,22.42
2022-08-19T21:58:44.753Z,22.38
2022-08-19T22:01:15.910Z,22.37
2022-08-19T22:03:45.438Z,22.40
2022-08-19T22:06:14.527Z,22.34
2022-08-19T22:08:44.884Z,22.32
2022-08-19T22:11:13.846Z,22.38
2022-08-19T22:13:42.930Z,22.34
2022-08-19T22:16:14.387Z,22.28
2022-08-19T22:18:45.250Z,22.27
2022-08-19T22:21:15.658Z,22.22
2022-08-19T22:23:52.057Z,22.20
2022-08-19T22:26:21.689Z,22.24
2022-08-19T22:28:50.633Z,22.33
2022-08-19T22:31:20.010Z,22.23
2022-08-19T22:33:52.961Z,22.19
2022-08-19T22:36:22.019Z,22.16
2022-08-19T22:38:51.045Z,22.19
2022-08-19T22:41:20.147Z,22.17
2022-08-19T22:43:51.526Z,22.25
2022-08-19T22:46:20.678Z,22.25
2022-08-19T22:48:56.719Z,22.18
2022-08-19T22:51:48.114Z,22.17
2022-08-19T22:54:20.302Z,22.07
2022-08-19T22:56:51.448Z,22.08
2022-08-19T22:59:20.409Z,22.08
2022-08-19T23:01:49.616Z,22.13
2022-08-19T23:04:20.355Z,22.11
2022-08-19T23:06:52.078Z,22.04
2022-08-19T23:09:23.472Z,22.05
2022-08-19T23:11:52.843Z,22.12
2022-08-19T23:14:21.589Z,22.05
2022-08-19T23:16:51.468Z,22.05
2022-08-19T23:19:23.377Z,22.02
2022-08-19T23:21:52.699Z,22.01
2022-08-19T23:24:21.683Z,22.01
2022-08-19T23:27:08.494Z,21.95
2022-08-19T23:29:55.228Z,21.90
2022-08-19T23:32:25.550Z,21.95
2022-08-19T23:34:58.000Z,21.95
2022-08-19T23:37:28.658Z,21.95
2022-08-19T23:39:57.577Z,21.98
2022-08-19T23:42:26.749Z,21.95
2022-08-19T23:45:03.790Z,21.83
2022-08-19T23:47:34.091Z,21.84
2022-08-19T23:50:07.770Z,21.86
2022-08-19T23:52:46.697Z,21.83
2022-08-19T23:55:21.481Z,21.78
2022-08-19T23:57:51.058Z,21.79
